sensor_id;sensor_type;location;lat;lon;timestamp;temperature;humidity
44767;DHT22;30487;48.716;9.272;2022-12-13T00:01:19;-2.10;99.90
44767;DHT22;30487;48.716;9.272;2022-12-13T00:03:45;-2.10;99.90
44767;DHT22;30487;48.716;9.272;2022-12-13T00:06:11;-2.10;99.90
44767;DHT22;30487;48.716;9.272;2022-12-13T00:08:38;-2.10;99.90
44767;DHT22;30487;48.716;9.272;2022-12-13T00:11:06;-2.20;99.90
44767;DHT22;30487;48.716;9.272;2022-12-13T00:13:33;-2.20;99.90
44767;DHT22;30487;48.716;9.272;2022-12-13T00:16:04;-2.20;99.90
44767;DHT22;30487;48.716;9.272;2022-12-13T00:18:30;-2.30;99.90
44767;DHT22;30487;48.716;9.272;2022-12-13T00:20:56;-2.30;99.90
44767;DHT22;30487;48.716;9.272;2022-12-13T00:23:22;-2.30;99.90
44767;DHT22;30487;48.716;9.272;2022-12-13T00:25:47;-2.30;99.90
44767;DHT22;30487;48.716;9.272;2022-12-13T00:28:14;-2.30;99.90
44767;DHT22;30487;48.716;9.272;2022-12-13T00:30:39;-2.30;99.90
44767;DHT22;30487;48.716;9.272;2022-12-13T00:33:06;-2.40;99.90
44767;DHT22;30487;48.716;9.272;2022-12-13T00:35:33;-2.40;99.90
44767;DHT22;30487;48.716;9.272;2022-12-13T00:37:58;-2.30;99.90
44767;DHT22;30487;48.716;9.272;2022-12-13T00:40:26;-2.40;99.90
44767;DHT22;30487;48.716;9.272;2022-12-13T00:42:52;-2.40;99.90
44767;DHT22;30487;48.716;9.272;2022-12-13T00:45:17;-2.40;99.90
44767;DHT22;30487;48.716;9.272;2022-12-13T00:47:45;-2.40;99.90
44767;DHT22;30487;48.716;9.272;2022-12-13T00:50:10;-2.40;99.90
44767;DHT22;30487;48.716;9.272;2022-12-13T00:52:36;-2.50;99.90
44767;DHT22;30487;48.716;9.272;2022-12-13T00:55:01;-2.50;99.90
44767;DHT22;30487;48.716;9.272;2022-12-13T00:57:27;-2.50;99.90
44767;DHT22;30487;48.716;9.272;2022-12-13T00:59:52;-2.50;99.90
44767;DHT22;30487;48.716;9.272;2022-12-13T01:02:18;-2.50;99.90
44767;DHT22;30487;48.716;9.272;2022-12-13T01:04:44;-2.50;99.90
44767;DHT22;30487;48.716;9.272;2022-12-13T01:07:09;-2.60;99.90
44767;DHT22;30487;48.716;9.272;2022-12-13T01:09:35;-2.60;99.90
44767;DHT22;30487;48.716;9.272;2022-12-13T01:12:04;-2.60;99.90
44767;DHT22;30487;48.716;9.272;2022-12-13T01:14:30;-2.60;99.90
44767;DHT22;30487;48.716;9.272;2022-12-13T01:16:56;-2.60;99.90
44767;DHT22;30487;48.716;9.272;2022-12-13T01:19:23;-2.60;99.90
44767;DHT22;30487;48.716;9.272;2022-12-13T01:21:53;-2.70;99.90
44767;DHT22;30487;48.716;9.272;2022-12-13T01:24:19;-2.70;99.90
44767;DHT22;30487;48.716;9.272;2022-12-13T01:26:47;-2.70;99.90
44767;DHT22;30487;48.716;9.272;2022-12-13T01:29:13;-2.70;99.90
44767;DHT22;30487;48.716;9.272;2022-12-13T01:31:38;-2.70;99.90
44767;DHT22;30487;48.716;9.272;2022-12-13T01:34:07;-2.60;99.90
44767;DHT22;30487;48.716;9.272;2022-12-13T01:36:35;-2.70;99.90
44767;DHT22;30487;48.716;9.272;2022-12-13T01:39:01;-2.70;99.90
44767;DHT22;30487;48.716;9.272;2022-12-13T01:41:28;-2.70;99.90
44767;DHT22;30487;48.716;9.272;2022-12-13T01:44:00;-2.70;99.90
44767;DHT22;30487;48.716;9.272;2022-12-13T01:46:34;-2.70;99.90
44767;DHT22;30487;48.716;9.272;2022-12-13T01:49:14;-2.70;99.90
44767;DHT22;30487;48.716;9.272;2022-12-13T01:51:48;-2.70;99.90
44767;DHT22;30487;48.716;9.272;2022-12-13T01:54:20;-2.80;99.90
44767;DHT22;30487;48.716;9.272;2022-12-13T01:56:51;-2.80;99.90
44767;DHT22;30487;48.716;9.272;2022-12-13T01:59:19;-2.90;99.90
44767;DHT22;30487;48.716;9.272;2022-12-13T02:01:46;-2.90;99.90
44767;DHT22;30487;48.716;9.272;2022-12-13T02:04:12;-2.90;99.90
44767;DHT22;30487;48.716;9.272;2022-12-13T02:06:41;-2.90;99.90
44767;DHT22;30487;48.716;9.272;2022-12-13T02:09:08;-2.90;99.90
44767;DHT22;30487;48.716;9.272;2022-12-13T02:11:37;-2.90;99.90
44767;DHT22;30487;48.716;9.272;2022-12-13T02:14:21;-2.90;99.90
44767;DHT22;30487;48.716;9.272;2022-12-13T02:30:37;-2.90;99.90
44767;DHT22;30487;48.716;9.272;2022-12-13T02:36:11;-2.90;99.90
44767;DHT22;30487;48.716;9.272;2022-12-13T02:38:59;-2.90;99.90
44767;DHT22;30487;48.716;9.272;2022-12-13T02:46:28;-2.90;99.90
44767;DHT22;30487;48.716;9.272;2022-12-13T02:48:57;-2.90;99.90
44767;DHT22;30487;48.716;9.272;2022-12-13T02:51:24;-2.90;99.90
44767;DHT22;30487;48.716;9.272;2022-12-13T02:53:51;-2.90;99.90
44767;DHT22;30487;48.716;9.272;2022-12-13T02:56:16;-2.90;99.90
44767;DHT22;30487;48.716;9.272;2022-12-13T02:58:46;-2.90;99.90
44767;DHT22;30487;48.716;9.272;2022-12-13T03:04:17;-2.90;99.90
44767;DHT22;30487;48.716;9.272;2022-12-13T03:07:05;-2.90;99.90
44767;DHT22;30487;48.716;9.272;2022-12-13T03:12:40;-2.90;99.90
44767;DHT22;30487;48.716;9.272;2022-12-13T03:15:36;-2.90;99.90
44767;DHT22;30487;48.716;9.272;2022-12-13T03:18:11;-2.90;99.90
44767;DHT22;30487;48.716;9.272;2022-12-13T03:20:49;-3.00;99.90
44767;DHT22;30487;48.716;9.272;2022-12-13T03:23:15;-3.00;99.90
44767;DHT22;30487;48.716;9.272;2022-12-13T03:25:42;-3.00;99.90
44767;DHT22;30487;48.716;9.272;2022-12-13T03:28:08;-3.00;99.90
44767;DHT22;30487;48.716;9.272;2022-12-13T03:30:34;-3.00;99.90
44767;DHT22;30487;48.716;9.272;2022-12-13T03:33:00;-3.00;99.90
44767;DHT22;30487;48.716;9.272;2022-12-13T03:35:26;-3.00;99.90
44767;DHT22;30487;48.716;9.272;2022-12-13T03:37:52;-2.90;99.90
44767;DHT22;30487;48.716;9.272;2022-12-13T03:40:18;-3.00;99.90
44767;DHT22;30487;48.716;9.272;2022-12-13T03:42:45;-3.00;99.90
44767;DHT22;30487;48.716;9.272;2022-12-13T03:45:10;-2.90;99.90
44767;DHT22;30487;48.716;9.272;2022-12-13T03:47:36;-3.00;99.90
44767;DHT22;30487;48.716;9.272;2022-12-13T03:50:02;-3.00;99.90
44767;DHT22;30487;48.716;9.272;2022-12-13T03:52:27;-3.00;99.90
44767;DHT22;30487;48.716;9.272;2022-12-13T03:54:53;-3.00;99.90
44767;DHT22;30487;48.716;9.272;2022-12-13T03:57:18;-3.00;99.90
44767;DHT22;30487;48.716;9.272;2022-12-13T03:59:44;-3.00;99.90
44767;DHT22;30487;48.716;9.272;2022-12-13T04:02:09;-3.00;99.90
44767;DHT22;30487;48.716;9.272;2022-12-13T04:04:35;-3.00;99.90
44767;DHT22;30487;48.716;9.272;2022-12-13T04:07:01;-3.00;99.90
44767;DHT22;30487;48.716;9.272;2022-12-13T04:09:26;-3.00;99.90
44767;DHT22;30487;48.716;9.272;2022-12-13T04:11:52;-3.00;99.90
44767;DHT22;30487;48.716;9.272;2022-12-13T04:14:36;-3.00;99.90
44767;DHT22;30487;48.716;9.272;2022-12-13T04:17:01;-3.00;99.90
44767;DHT22;30487;48.716;9.272;2022-12-13T04:19:27;-3.00;99.90
44767;DHT22;30487;48.716;9.272;2022-12-13T04:21:52;-3.00;99.90
44767;DHT22;30487;48.716;9.272;2022-12-13T04:24:19;-3.10;99.90
44767;DHT22;30487;48.716;9.272;2022-12-13T04:26:45;-3.10;99.90
44767;DHT22;30487;48.716;9.272;2022-12-13T04:29:10;-3.10;99.90
44767;DHT22;30487;48.716;9.272;2022-12-13T04:31:37;-3.10;99.90
44767;DHT22;30487;48.716;9.272;2022-12-13T04:34:02;-3.10;99.90
44767;DHT22;30487;48.716;9.272;2022-12-13T04:36:28;-3.10;99.90
44767;DHT22;30487;48.716;9.272;2022-12-13T04:38:54;-3.10;99.90
44767;DHT22;30487;48.716;9.272;2022-12-13T04:41:19;-3.10;99.90
44767;DHT22;30487;48.716;9.272;2022-12-13T04:43:50;-3.10;99.90
44767;DHT22;30487;48.716;9.272;2022-12-13T04:46:18;-3.10;99.90
44767;DHT22;30487;48.716;9.272;2022-12-13T04:48:44;-3.10;99.90
44767;DHT22;30487;48.716;9.272;2022-12-13T04:51:09;-3.10;99.90
44767;DHT22;30487;48.716;9.272;2022-12-13T04:53:35;-3.10;99.90
44767;DHT22;30487;48.716;9.272;2022-12-13T04:56:02;-3.10;99.90
44767;DHT22;30487;48.716;9.272;2022-12-13T04:58:28;-3.00;99.90
44767;DHT22;30487;48.716;9.272;2022-12-13T05:00:54;-3.10;99.90
44767;DHT22;30487;48.716;9.272;2022-12-13T05:03:19;-3.10;99.90
44767;DHT22;30487;48.716;9.272;2022-12-13T05:05:45;-3.10;99.90
44767;DHT22;30487;48.716;9.272;2022-12-13T05:08:10;-3.00;99.90
44767;DHT22;30487;48.716;9.272;2022-12-13T05:10:36;-3.10;99.90
44767;DHT22;30487;48.716;9.272;2022-12-13T05:13:02;-3.10;99.90
44767;DHT22;30487;48.716;9.272;2022-12-13T05:15:28;-3.00;99.90
44767;DHT22;30487;48.716;9.272;2022-12-13T05:18:04;-3.10;99.90
44767;DHT22;30487;48.716;9.272;2022-12-13T05:20:30;-3.00;99.90
44767;DHT22;30487;48.716;9.272;2022-12-13T05:22:56;-3.00;99.90
44767;DHT22;30487;48.716;9.272;2022-12-13T05:25:23;-3.10;99.90
44767;DHT22;30487;48.716;9.272;2022-12-13T05:27:49;-3.10;99.90
44767;DHT22;30487;48.716;9.272;2022-12-13T05:30:15;-3.00;99.90
44767;DHT22;30487;48.716;9.272;2022-12-13T05:32:40;-3.10;99.90
44767;DHT22;30487;48.716;9.272;2022-12-13T05:35:06;-3.00;99.90
44767;DHT22;30487;48.716;9.272;2022-12-13T05:37:32;-3.00;99.90
44767;DHT22;30487;48.716;9.272;2022-12-13T05:39:58;-3.10;99.90
44767;DHT22;30487;48.716;9.272;2022-12-13T05:42:24;-3.10;99.90
44767;DHT22;30487;48.716;9.272;2022-12-13T05:44:51;-3.10;99.90
44767;DHT22;30487;48.716;9.272;2022-12-13T05:47:16;-3.10;99.90
44767;DHT22;30487;48.716;9.272;2022-12-13T05:49:42;-3.10;99.90
44767;DHT22;30487;48.716;9.272;2022-12-13T05:52:18;-3.10;99.90
44767;DHT22;30487;48.716;9.272;2022-12-13T05:54:44;-3.10;99.90
44767;DHT22;30487;48.716;9.272;2022-12-13T05:57:10;-3.00;99.90
44767;DHT22;30487;48.716;9.272;2022-12-13T05:59:35;-3.00;99.90
44767;DHT22;30487;48.716;9.272;2022-12-13T06:02:01;-3.00;99.90
44767;DHT22;30487;48.716;9.272;2022-12-13T06:04:26;-3.00;99.90
44767;DHT22;30487;48.716;9.272;2022-12-13T06:06:52;-3.00;99.90
44767;DHT22;30487;48.716;9.272;2022-12-13T06:09:19;-3.00;99.90
44767;DHT22;30487;48.716;9.272;2022-12-13T06:11:44;-3.00;99.90
44767;DHT22;30487;48.716;9.272;2022-12-13T06:14:10;-3.00;99.90
44767;DHT22;30487;48.716;9.272;2022-12-13T06:16:35;-3.00;99.90
44767;DHT22;30487;48.716;9.272;2022-12-13T06:19:01;-3.00;99.90
44767;DHT22;30487;48.716;9.272;2022-12-13T06:21:27;-3.00;99.90
44767;DHT22;30487;48.716;9.272;2022-12-13T06:23:53;-3.00;99.90
44767;DHT22;30487;48.716;9.272;2022-12-13T06:26:19;-3.10;99.90
44767;DHT22;30487;48.716;9.272;2022-12-13T06:28:44;-3.10;99.90
44767;DHT22;30487;48.716;9.272;2022-12-13T06:31:10;-3.10;99.90
44767;DHT22;30487;48.716;9.272;2022-12-13T06:33:35;-3.10;99.90
44767;DHT22;30487;48.716;9.272;2022-12-13T06:36:03;-3.10;99.90
44767;DHT22;30487;48.716;9.272;2022-12-13T06:38:29;-3.00;99.90
44767;DHT22;30487;48.716;9.272;2022-12-13T06:41:08;-3.00;99.90
44767;DHT22;30487;48.716;9.272;2022-12-13T06:43:35;-3.00;99.90
44767;DHT22;30487;48.716;9.272;2022-12-13T06:46:03;-3.00;99.90
44767;DHT22;30487;48.716;9.272;2022-12-13T06:48:29;-3.00;99.90
44767;DHT22;30487;48.716;9.272;2022-12-13T06:50:58;-3.00;99.90
44767;DHT22;30487;48.716;9.272;2022-12-13T06:53:23;-3.10;99.90
44767;DHT22;30487;48.716;9.272;2022-12-13T06:55:49;-3.10;99.90
44767;DHT22;30487;48.716;9.272;2022-12-13T06:58:15;-3.00;99.90
44767;DHT22;30487;48.716;9.272;2022-12-13T07:00:40;-3.00;99.90
44767;DHT22;30487;48.716;9.272;2022-12-13T07:03:07;-3.00;99.90
44767;DHT22;30487;48.716;9.272;2022-12-13T07:05:36;-3.00;99.90
44767;DHT22;30487;48.716;9.272;2022-12-13T07:08:01;-3.00;99.90
44767;DHT22;30487;48.716;9.272;2022-12-13T07:10:27;-3.00;99.90
44767;DHT22;30487;48.716;9.272;2022-12-13T07:12:52;-3.00;99.90
44767;DHT22;30487;48.716;9.272;2022-12-13T07:15:18;-3.00;99.90
44767;DHT22;30487;48.716;9.272;2022-12-13T07:17:43;-2.90;99.90
44767;DHT22;30487;48.716;9.272;2022-12-13T07:20:10;-2.90;99.90
44767;DHT22;30487;48.716;9.272;2022-12-13T07:22:38;-2.90;99.90
44767;DHT22;30487;48.716;9.272;2022-12-13T07:25:04;-2.90;99.90
44767;DHT22;30487;48.716;9.272;2022-12-13T07:27:29;-2.90;99.90
44767;DHT22;30487;48.716;9.272;2022-12-13T07:29:55;-2.90;99.90
44767;DHT22;30487;48.716;9.272;2022-12-13T07:32:22;-2.70;99.90
44767;DHT22;30487;48.716;9.272;2022-12-13T07:34:47;-2.60;99.90
44767;DHT22;30487;48.716;9.272;2022-12-13T07:37:13;-2.60;99.90
44767;DHT22;30487;48.716;9.272;2022-12-13T07:39:38;-2.60;99.90
44767;DHT22;30487;48.716;9.272;2022-12-13T07:42:04;-2.50;99.90
44767;DHT22;30487;48.716;9.272;2022-12-13T07:44:30;-2.40;99.90
44767;DHT22;30487;48.716;9.272;2022-12-13T07:46:55;-2.40;99.90
44767;DHT22;30487;48.716;9.272;2022-12-13T07:49:21;-2.30;99.90
44767;DHT22;30487;48.716;9.272;2022-12-13T07:51:46;-2.30;99.90
44767;DHT22;30487;48.716;9.272;2022-12-13T07:54:12;-2.30;99.90
44767;DHT22;30487;48.716;9.272;2022-12-13T07:56:37;-2.30;99.90
44767;DHT22;30487;48.716;9.272;2022-12-13T07:59:03;-2.30;99.90
44767;DHT22;30487;48.716;9.272;2022-12-13T08:01:33;-2.20;99.90
44767;DHT22;30487;48.716;9.272;2022-12-13T08:03:59;-2.10;99.90
44767;DHT22;30487;48.716;9.272;2022-12-13T08:06:25;-2.00;99.90
44767;DHT22;30487;48.716;9.272;2022-12-13T08:08:54;-2.00;99.90
44767;DHT22;30487;48.716;9.272;2022-12-13T08:11:20;-1.80;99.90
44767;DHT22;30487;48.716;9.272;2022-12-13T08:13:46;-1.70;99.90
44767;DHT22;30487;48.716;9.272;2022-12-13T08:16:12;-1.50;99.90
44767;DHT22;30487;48.716;9.272;2022-12-13T08:18:45;-1.40;99.90
44767;DHT22;30487;48.716;9.272;2022-12-13T08:21:14;-1.20;99.90
44767;DHT22;30487;48.716;9.272;2022-12-13T08:23:40;-1.10;99.90
44767;DHT22;30487;48.716;9.272;2022-12-13T08:26:05;-1.10;99.90
44767;DHT22;30487;48.716;9.272;2022-12-13T08:28:32;-1.10;99.90
44767;DHT22;30487;48.716;9.272;2022-12-13T08:31:03;-1.10;99.90
44767;DHT22;30487;48.716;9.272;2022-12-13T08:33:29;-1.10;99.90
44767;DHT22;30487;48.716;9.272;2022-12-13T08:35:54;-1.10;99.90
44767;DHT22;30487;48.716;9.272;2022-12-13T08:38:20;-1.00;99.90
44767;DHT22;30487;48.716;9.272;2022-12-13T08:40:46;-1.00;99.90
44767;DHT22;30487;48.716;9.272;2022-12-13T08:43:11;-1.00;99.90
44767;DHT22;30487;48.716;9.272;2022-12-13T08:45:38;-1.00;99.90
44767;DHT22;30487;48.716;9.272;2022-12-13T08:48:04;-0.90;99.90
44767;DHT22;30487;48.716;9.272;2022-12-13T08:50:30;-0.90;99.90
44767;DHT22;30487;48.716;9.272;2022-12-13T08:52:56;-0.90;99.90
44767;DHT22;30487;48.716;9.272;2022-12-13T08:55:21;-0.70;99.90
44767;DHT22;30487;48.716;9.272;2022-12-13T08:57:47;-0.70;99.90
44767;DHT22;30487;48.716;9.272;2022-12-13T09:00:15;-0.60;99.90
44767;DHT22;30487;48.716;9.272;2022-12-13T09:02:41;-0.60;99.90
44767;DHT22;30487;48.716;9.272;2022-12-13T09:05:08;-0.50;99.90
44767;DHT22;30487;48.716;9.272;2022-12-13T09:07:35;-0.40;99.90
44767;DHT22;30487;48.716;9.272;2022-12-13T09:10:01;-0.30;99.90
44767;DHT22;30487;48.716;9.272;2022-12-13T09:12:27;-0.20;99.90
44767;DHT22;30487;48.716;9.272;2022-12-13T09:14:54;-0.10;99.90
44767;DHT22;30487;48.716;9.272;2022-12-13T09:17:19;0.00;99.90
44767;DHT22;30487;48.716;9.272;2022-12-13T09:19:45;0.10;99.90
44767;DHT22;30487;48.716;9.272;2022-12-13T09:22:11;0.20;99.80
44767;DHT22;30487;48.716;9.272;2022-12-13T09:24:37;0.30;99.50
44767;DHT22;30487;48.716;9.272;2022-12-13T09:27:06;0.30;99.10
44767;DHT22;30487;48.716;9.272;2022-12-13T09:29:33;0.30;98.60
44767;DHT22;30487;48.716;9.272;2022-12-13T09:31:59;0.40;99.00
44767;DHT22;30487;48.716;9.272;2022-12-13T09:34:25;0.60;98.60
44767;DHT22;30487;48.716;9.272;2022-12-13T09:36:51;0.70;98.30
44767;DHT22;30487;48.716;9.272;2022-12-13T09:39:16;0.70;97.90
44767;DHT22;30487;48.716;9.272;2022-12-13T09:41:45;0.90;97.50
44767;DHT22;30487;48.716;9.272;2022-12-13T09:44:20;1.00;97.60
44767;DHT22;30487;48.716;9.272;2022-12-13T09:46:48;1.30;97.20
44767;DHT22;30487;48.716;9.272;2022-12-13T09:49:21;1.40;96.80
44767;DHT22;30487;48.716;9.272;2022-12-13T09:51:53;1.40;95.90
44767;DHT22;30487;48.716;9.272;2022-12-13T09:54:22;1.50;95.90
44767;DHT22;30487;48.716;9.272;2022-12-13T09:56:49;1.60;95.30
44767;DHT22;30487;48.716;9.272;2022-12-13T09:59:23;1.70;95.80
44767;DHT22;30487;48.716;9.272;2022-12-13T10:01:50;1.80;94.70
44767;DHT22;30487;48.716;9.272;2022-12-13T10:04:17;1.80;94.80
44767;DHT22;30487;48.716;9.272;2022-12-13T10:06:42;1.90;94.70
44767;DHT22;30487;48.716;9.272;2022-12-13T10:09:12;2.00;94.50
44767;DHT22;30487;48.716;9.272;2022-12-13T10:11:50;2.20;94.00
44767;DHT22;30487;48.716;9.272;2022-12-13T10:14:31;2.20;93.70
44767;DHT22;30487;48.716;9.272;2022-12-13T10:17:02;2.30;93.30
44767;DHT22;30487;48.716;9.272;2022-12-13T10:19:39;2.50;92.60
44767;DHT22;30487;48.716;9.272;2022-12-13T10:22:11;2.70;93.10
44767;DHT22;30487;48.716;9.272;2022-12-13T10:27:44;3.00;92.30
44767;DHT22;30487;48.716;9.272;2022-12-13T10:30:16;3.20;92.20
44767;DHT22;30487;48.716;9.272;2022-12-13T10:33:03;3.20;90.70
44767;DHT22;30487;48.716;9.272;2022-12-13T10:35:36;3.20;91.10
44767;DHT22;30487;48.716;9.272;2022-12-13T10:40:42;3.70;90.40
44767;DHT22;30487;48.716;9.272;2022-12-13T10:43:16;4.10;89.60
44767;DHT22;30487;48.716;9.272;2022-12-13T10:48:38;4.30;88.00
44767;DHT22;30487;48.716;9.272;2022-12-13T10:51:10;4.50;86.20
44767;DHT22;30487;48.716;9.272;2022-12-13T10:53:57;4.70;85.60
44767;DHT22;30487;48.716;9.272;2022-12-13T10:56:35;4.90;84.10
44767;DHT22;30487;48.716;9.272;2022-12-13T10:59:32;5.00;82.90
44767;DHT22;30487;48.716;9.272;2022-12-13T11:01:59;5.20;81.10
44767;DHT22;30487;48.716;9.272;2022-12-13T11:04:31;5.30;81.30
44767;DHT22;30487;48.716;9.272;2022-12-13T11:07:00;5.30;80.50
44767;DHT22;30487;48.716;9.272;2022-12-13T11:09:30;5.30;79.30
44767;DHT22;30487;48.716;9.272;2022-12-13T11:12:02;5.20;79.30
44767;DHT22;30487;48.716;9.272;2022-12-13T11:14:32;5.40;79.50
44767;DHT22;30487;48.716;9.272;2022-12-13T11:17:14;5.60;77.70
44767;DHT22;30487;48.716;9.272;2022-12-13T11:19:48;5.80;77.00
44767;DHT22;30487;48.716;9.272;2022-12-13T11:22:21;5.90;77.00
44767;DHT22;30487;48.716;9.272;2022-12-13T11:24:54;6.10;77.10
44767;DHT22;30487;48.716;9.272;2022-12-13T11:27:44;6.10;79.40
44767;DHT22;30487;48.716;9.272;2022-12-13T11:30:23;6.30;78.70
44767;DHT22;30487;48.716;9.272;2022-12-13T11:36:12;6.10;76.90
44767;DHT22;30487;48.716;9.272;2022-12-13T11:47:14;6.70;73.40
44767;DHT22;30487;48.716;9.272;2022-12-13T11:49:43;6.90;71.70
44767;DHT22;30487;48.716;9.272;2022-12-13T11:52:18;7.10;73.10
44767;DHT22;30487;48.716;9.272;2022-12-13T11:54:53;7.10;72.10
44767;DHT22;30487;48.716;9.272;2022-12-13T11:57:47;7.20;70.50
44767;DHT22;30487;48.716;9.272;2022-12-13T12:02:51;7.40;69.00
44767;DHT22;30487;48.716;9.272;2022-12-13T12:05:39;7.30;68.00
44767;DHT22;30487;48.716;9.272;2022-12-13T12:08:24;7.10;68.10
44767;DHT22;30487;48.716;9.272;2022-12-13T12:14:07;6.90;67.80
44767;DHT22;30487;48.716;9.272;2022-12-13T12:16:54;7.00;67.60
44767;DHT22;30487;48.716;9.272;2022-12-13T12:19:23;6.90;66.50
44767;DHT22;30487;48.716;9.272;2022-12-13T12:22:14;6.90;66.00
44767;DHT22;30487;48.716;9.272;2022-12-13T12:27:38;6.60;65.30
44767;DHT22;30487;48.716;9.272;2022-12-13T12:36:04;7.00;65.60
44767;DHT22;30487;48.716;9.272;2022-12-13T12:49:47;7.60;62.50
44767;DHT22;30487;48.716;9.272;2022-12-13T13:03:34;7.60;61.20
44767;DHT22;30487;48.716;9.272;2022-12-13T13:06:07;7.70;60.80
44767;DHT22;30487;48.716;9.272;2022-12-13T13:08:45;7.60;60.80
44767;DHT22;30487;48.716;9.272;2022-12-13T13:11:12;7.60;65.30
44767;DHT22;30487;48.716;9.272;2022-12-13T13:18:54;7.30;61.70
44767;DHT22;30487;48.716;9.272;2022-12-13T13:21:30;7.20;63.90
44767;DHT22;30487;48.716;9.272;2022-12-13T13:26:30;7.20;63.80
44767;DHT22;30487;48.716;9.272;2022-12-13T13:29:21;7.10;62.40
44767;DHT22;30487;48.716;9.272;2022-12-13T13:36:56;6.70;61.80
44767;DHT22;30487;48.716;9.272;2022-12-13T13:52:44;5.50;62.60
44767;DHT22;30487;48.716;9.272;2022-12-13T13:58:43;4.90;62.80
44767;DHT22;30487;48.716;9.272;2022-12-13T14:04:37;4.70;63.40
44767;DHT22;30487;48.716;9.272;2022-12-13T14:12:39;4.10;64.70
44767;DHT22;30487;48.716;9.272;2022-12-13T14:24:12;3.60;65.40
44767;DHT22;30487;48.716;9.272;2022-12-13T14:29:28;3.50;66.00
44767;DHT22;30487;48.716;9.272;2022-12-13T14:31:56;3.40;66.10
44767;DHT22;30487;48.716;9.272;2022-12-13T14:34:25;3.40;66.00
44767;DHT22;30487;48.716;9.272;2022-12-13T14:36:57;3.30;66.10
44767;DHT22;30487;48.716;9.272;2022-12-13T14:39:23;3.20;66.60
44767;DHT22;30487;48.716;9.272;2022-12-13T14:41:52;3.10;66.80
44767;DHT22;30487;48.716;9.272;2022-12-13T14:44:26;3.10;67.20
44767;DHT22;30487;48.716;9.272;2022-12-13T14:46:53;3.10;66.90
44767;DHT22;30487;48.716;9.272;2022-12-13T14:49:20;3.10;66.80
44767;DHT22;30487;48.716;9.272;2022-12-13T14:51:49;3.00;67.20
44767;DHT22;30487;48.716;9.272;2022-12-13T14:54:21;2.90;67.40
44767;DHT22;30487;48.716;9.272;2022-12-13T14:56:56;2.80;67.80
44767;DHT22;30487;48.716;9.272;2022-12-13T14:59:22;2.70;68.20
44767;DHT22;30487;48.716;9.272;2022-12-13T15:02:00;2.60;68.40
44767;DHT22;30487;48.716;9.272;2022-12-13T15:04:30;2.60;68.70
44767;DHT22;30487;48.716;9.272;2022-12-13T15:07:21;2.50;68.90
44767;DHT22;30487;48.716;9.272;2022-12-13T15:09:53;2.40;69.10
44767;DHT22;30487;48.716;9.272;2022-12-13T15:12:21;2.40;69.00
44767;DHT22;30487;48.716;9.272;2022-12-13T15:14:55;2.30;69.20
44767;DHT22;30487;48.716;9.272;2022-12-13T15:17:28;2.30;69.00
44767;DHT22;30487;48.716;9.272;2022-12-13T15:19:54;2.30;69.20
44767;DHT22;30487;48.716;9.272;2022-12-13T15:22:20;2.20;69.60
44767;DHT22;30487;48.716;9.272;2022-12-13T15:24:46;2.10;70.10
44767;DHT22;30487;48.716;9.272;2022-12-13T15:27:17;2.00;70.70
44767;DHT22;30487;48.716;9.272;2022-12-13T15:29:44;1.90;71.30
44767;DHT22;30487;48.716;9.272;2022-12-13T15:32:16;1.80;71.80
44767;DHT22;30487;48.716;9.272;2022-12-13T15:34:45;1.80;72.20
44767;DHT22;30487;48.716;9.272;2022-12-13T15:37:23;1.80;72.60
44767;DHT22;30487;48.716;9.272;2022-12-13T15:39:51;1.70;73.10
44767;DHT22;30487;48.716;9.272;2022-12-13T15:44:55;1.60;74.00
44767;DHT22;30487;48.716;9.272;2022-12-13T15:47:22;1.60;74.50
44767;DHT22;30487;48.716;9.272;2022-12-13T15:50:02;1.50;75.20
44767;DHT22;30487;48.716;9.272;2022-12-13T15:57:25;1.40;75.60
44767;DHT22;30487;48.716;9.272;2022-12-13T16:00:27;1.40;75.90
44767;DHT22;30487;48.716;9.272;2022-12-13T16:03:11;1.40;76.20
44767;DHT22;30487;48.716;9.272;2022-12-13T16:05:47;1.30;76.50
44767;DHT22;30487;48.716;9.272;2022-12-13T16:10:55;1.30;77.00
44767;DHT22;30487;48.716;9.272;2022-12-13T16:13:29;1.20;77.20
44767;DHT22;30487;48.716;9.272;2022-12-13T16:16:00;1.20;77.40
44767;DHT22;30487;48.716;9.272;2022-12-13T16:18:31;1.20;77.40
44767;DHT22;30487;48.716;9.272;2022-12-13T16:20:57;1.20;77.60
44767;DHT22;30487;48.716;9.272;2022-12-13T16:23:24;1.10;77.50
44767;DHT22;30487;48.716;9.272;2022-12-13T16:25:50;1.20;77.30
44767;DHT22;30487;48.716;9.272;2022-12-13T16:28:17;1.10;77.30
44767;DHT22;30487;48.716;9.272;2022-12-13T16:33:21;1.10;77.50
44767;DHT22;30487;48.716;9.272;2022-12-13T16:35:47;1.10;77.20
44767;DHT22;30487;48.716;9.272;2022-12-13T16:38:14;1.10;76.30
44767;DHT22;30487;48.716;9.272;2022-12-13T16:40:40;1.10;76.00
44767;DHT22;30487;48.716;9.272;2022-12-13T16:43:15;1.00;75.40
44767;DHT22;30487;48.716;9.272;2022-12-13T16:45:43;1.00;76.20
44767;DHT22;30487;48.716;9.272;2022-12-13T16:48:11;1.00;76.90
44767;DHT22;30487;48.716;9.272;2022-12-13T16:50:41;1.00;76.50
44767;DHT22;30487;48.716;9.272;2022-12-13T16:53:07;1.00;76.10
44767;DHT22;30487;48.716;9.272;2022-12-13T16:55:32;1.00;76.10
44767;DHT22;30487;48.716;9.272;2022-12-13T16:58:00;0.90;76.00
44767;DHT22;30487;48.716;9.272;2022-12-13T17:00:27;0.90;76.10
44767;DHT22;30487;48.716;9.272;2022-12-13T17:02:54;0.90;76.20
44767;DHT22;30487;48.716;9.272;2022-12-13T17:05:21;0.80;76.20
44767;DHT22;30487;48.716;9.272;2022-12-13T17:07:47;0.80;76.60
44767;DHT22;30487;48.716;9.272;2022-12-13T17:10:13;0.80;76.70
44767;DHT22;30487;48.716;9.272;2022-12-13T17:12:39;0.70;76.70
44767;DHT22;30487;48.716;9.272;2022-12-13T17:15:05;0.70;77.00
44767;DHT22;30487;48.716;9.272;2022-12-13T17:17:31;0.70;77.40
44767;DHT22;30487;48.716;9.272;2022-12-13T17:19:56;0.60;77.60
44767;DHT22;30487;48.716;9.272;2022-12-13T17:22:22;0.60;77.90
44767;DHT22;30487;48.716;9.272;2022-12-13T17:24:48;0.60;78.10
44767;DHT22;30487;48.716;9.272;2022-12-13T17:27:14;0.60;78.30
44767;DHT22;30487;48.716;9.272;2022-12-13T17:29:40;0.50;78.70
44767;DHT22;30487;48.716;9.272;2022-12-13T17:32:05;0.40;79.10
44767;DHT22;30487;48.716;9.272;2022-12-13T17:34:31;0.50;79.30
44767;DHT22;30487;48.716;9.272;2022-12-13T17:36:56;0.50;79.40
44767;DHT22;30487;48.716;9.272;2022-12-13T17:39:22;0.50;79.50
44767;DHT22;30487;48.716;9.272;2022-12-13T17:41:48;0.40;80.20
44767;DHT22;30487;48.716;9.272;2022-12-13T17:44:13;0.40;83.20
44767;DHT22;30487;48.716;9.272;2022-12-13T17:46:39;0.40;83.50
44767;DHT22;30487;48.716;9.272;2022-12-13T17:49:05;0.40;83.20
44767;DHT22;30487;48.716;9.272;2022-12-13T17:51:30;0.40;82.60
44767;DHT22;30487;48.716;9.272;2022-12-13T17:53:56;0.30;82.30
44767;DHT22;30487;48.716;9.272;2022-12-13T17:56:21;0.30;82.30
44767;DHT22;30487;48.716;9.272;2022-12-13T17:58:47;0.20;82.40
44767;DHT22;30487;48.716;9.272;2022-12-13T18:01:20;0.10;82.60
44767;DHT22;30487;48.716;9.272;2022-12-13T18:03:47;0.10;83.00
44767;DHT22;30487;48.716;9.272;2022-12-13T18:06:15;0.10;83.20
44767;DHT22;30487;48.716;9.272;2022-12-13T18:08:42;0.10;83.30
44767;DHT22;30487;48.716;9.272;2022-12-13T18:11:09;0.10;83.40
44767;DHT22;30487;48.716;9.272;2022-12-13T18:13:35;0.10;83.70
44767;DHT22;30487;48.716;9.272;2022-12-13T18:16:05;0.00;84.00